KHRO/HRO METAR and TAF weather

Enter ICAO airport designator
Station Type Date Time Source
KHRO METAR 2020/01/19 22:53 UTC NOAA

KHRO 192253Z AUTO 33011KT 10SM CLR 02/M12 A3045 RMK AO2 SLP324 T00171117


Station Type Date Time Source
KHRO Decoded METAR 2020/01/19 22:53 UTC NOAA

HARRISON BOONE COUNTY AIRPORT , AR, United States (KHRO) 36-16N 093-09W 417M
Jan 19, 2020 - 05:53 PM EST / 2020.01.19 2253 UTC
Wind: from the NNW (330 degrees) at 13 MPH (11 KT):0
Visibility: 10 mile(s):0
Sky conditions: clear
Temperature: 35.1 F (1.7 C)
Dew Point: 10.9 F (-11.7 C)
Relative Humidity: 36%
Pressure (altimeter): 30.45 in. Hg (1031 hPa)
ob: KHRO 192253Z AUTO 33011KT 10SM CLR 02/M12 A3045 RMK AO2 SLP324 T00171117
cycle: 23

Station Type Date Time Source
KHRO TAF 2020/01/19 22:27 UTC NOAA

TAF
AMD KHRO 192225Z 1922/2018 32010G24KT P6SM SKC
FM200500 VRB06KT P6SM SKC

Example: see airport list